PAY1192 MDSI-TIST
Flight info
| Callsign | PAY1192 |
|---|---|
| Flight time | N/A |
| Altitude | 23000 |
| Route | SIS DCT SIS |
| Aircraft | DH8D/M-SDE2E3FGRY/H |
Departure
| Time | N/A |
|---|---|
| Airport | San Isidro Air Base (MDSI) |
Arrival
| Time | 2026-04-21 21:17 |
|---|---|
| Airport | Cyril E. King Airport (TIST) |
| Time | Latitude | Longitude | Altitude | Speed | Heading |
|---|---|---|---|---|---|
| 2026-04-21 20:51 | 18.50005 | -66.88635 | 21024 ft | 361 kts | 90° |
| 2026-04-21 20:52 | 18.49978 | -66.85957 | 21023 ft | 361 kts | 90° |
| 2026-04-21 20:52 | 18.49951 | -66.83309 | 21022 ft | 361 kts | 90° |
| 2026-04-21 20:52 | 18.49924 | -66.80637 | 21021 ft | 361 kts | 90° |
| 2026-04-21 20:52 | 18.49896 | -66.77977 | 21019 ft | 361 kts | 90° |
| 2026-04-21 20:53 | 18.49867 | -66.75254 | 21018 ft | 361 kts | 90° |
| 2026-04-21 20:53 | 18.49838 | -66.72533 | 21017 ft | 361 kts | 90° |
| 2026-04-21 20:53 | 18.49809 | -66.69862 | 21015 ft | 361 kts | 90° |
| 2026-04-21 20:53 | 18.49779 | -66.67220 | 21013 ft | 361 kts | 90° |
| 2026-04-21 20:54 | 18.49750 | -66.64594 | 21012 ft | 361 kts | 90° |
| 2026-04-21 20:54 | 18.49720 | -66.61947 | 21010 ft | 361 kts | 90° |
| 2026-04-21 20:54 | 18.49689 | -66.59246 | 21008 ft | 361 kts | 90° |
| 2026-04-21 20:54 | 18.49658 | -66.56631 | 21004 ft | 361 kts | 90° |
| 2026-04-21 20:55 | 18.49627 | -66.53934 | 21001 ft | 361 kts | 90° |
| 2026-04-21 20:55 | 18.49594 | -66.51224 | 20997 ft | 361 kts | 90° |
| 2026-04-21 20:55 | 18.49562 | -66.48513 | 20996 ft | 361 kts | 90° |
| 2026-04-21 20:55 | 18.49529 | -66.45818 | 20997 ft | 361 kts | 90° |
| 2026-04-21 20:56 | 18.49508 | -66.44076 | 20998 ft | 361 kts | 90° |
| 2026-04-21 20:56 | 18.49463 | -66.40469 | 20999 ft | 361 kts | 90° |
| 2026-04-21 20:56 | 18.49429 | -66.37744 | 21000 ft | 361 kts | 90° |
| 2026-04-21 20:56 | 18.49394 | -66.35068 | 21012 ft | 360 kts | 90° |
| 2026-04-21 20:57 | 18.49360 | -66.32375 | 20793 ft | 366 kts | 90° |
| 2026-04-21 20:57 | 18.49325 | -66.29702 | 20462 ft | 370 kts | 90° |
| 2026-04-21 20:57 | 18.49291 | -66.26984 | 20091 ft | 374 kts | 90° |
| 2026-04-21 20:57 | 18.49254 | -66.24206 | 19698 ft | 374 kts | 90° |
| 2026-04-21 20:58 | 18.49220 | -66.21500 | 19308 ft | 370 kts | 90° |
| 2026-04-21 20:58 | 18.49187 | -66.18799 | 18901 ft | 366 kts | 90° |
| 2026-04-21 20:58 | 18.49151 | -66.16057 | 18504 ft | 361 kts | 90° |
| 2026-04-21 20:58 | 18.49115 | -66.13382 | 18124 ft | 356 kts | 90° |
| 2026-04-21 20:59 | 18.49079 | -66.10713 | 17746 ft | 352 kts | 90° |
| 2026-04-21 20:59 | 18.49043 | -66.08161 | 17387 ft | 348 kts | 90° |
| 2026-04-21 20:59 | 18.49007 | -66.05593 | 17025 ft | 344 kts | 90° |
| 2026-04-21 20:59 | 18.48971 | -66.03096 | 16672 ft | 340 kts | 90° |
| 2026-04-21 21:00 | 18.48935 | -66.00637 | 16324 ft | 337 kts | 90° |
| 2026-04-21 21:00 | 18.48898 | -65.98133 | 15971 ft | 333 kts | 90° |
| 2026-04-21 21:00 | 18.48862 | -65.95679 | 15624 ft | 328 kts | 90° |
| 2026-04-21 21:00 | 18.48828 | -65.93314 | 15280 ft | 314 kts | 90° |
| 2026-04-21 21:01 | 18.48796 | -65.91048 | 14957 ft | 301 kts | 90° |
| 2026-04-21 21:01 | 18.48764 | -65.88853 | 14646 ft | 288 kts | 89° |
| 2026-04-21 21:01 | 18.48732 | -65.86734 | 14355 ft | 281 kts | 89° |
| 2026-04-21 21:01 | 18.48698 | -65.84660 | 14067 ft | 280 kts | 89° |
| 2026-04-21 21:02 | 18.48664 | -65.82547 | 13770 ft | 279 kts | 89° |
| 2026-04-21 21:02 | 18.48631 | -65.80473 | 13479 ft | 278 kts | 89° |
| 2026-04-21 21:02 | 18.48598 | -65.78414 | 13189 ft | 278 kts | 89° |
| 2026-04-21 21:02 | 18.48581 | -65.76368 | 12900 ft | 277 kts | 88° |
| 2026-04-21 21:03 | 18.48635 | -65.74359 | 12618 ft | 276 kts | 86° |
| 2026-04-21 21:03 | 18.48700 | -65.72342 | 12336 ft | 276 kts | 86° |
| 2026-04-21 21:03 | 18.48764 | -65.70333 | 12058 ft | 275 kts | 86° |
| 2026-04-21 21:03 | 18.48827 | -65.68318 | 11780 ft | 274 kts | 86° |
| 2026-04-21 21:04 | 18.48888 | -65.66260 | 11497 ft | 273 kts | 86° |
| 2026-04-21 21:04 | 18.48947 | -65.64243 | 11219 ft | 271 kts | 86° |
| 2026-04-21 21:04 | 18.49005 | -65.62199 | 10938 ft | 270 kts | 86° |
| 2026-04-21 21:04 | 18.49061 | -65.60211 | 10666 ft | 269 kts | 86° |
| 2026-04-21 21:05 | 18.49117 | -65.58222 | 10393 ft | 268 kts | 86° |
| 2026-04-21 21:05 | 18.49172 | -65.56271 | 10127 ft | 267 kts | 86° |
| 2026-04-21 21:05 | 18.49232 | -65.54327 | 9867 ft | 266 kts | 86° |
| 2026-04-21 21:05 | 18.49297 | -65.52365 | 9527 ft | 268 kts | 86° |
| 2026-04-21 21:06 | 18.49368 | -65.50388 | 9172 ft | 270 kts | 86° |
| 2026-04-21 21:06 | 18.49445 | -65.48422 | 8807 ft | 263 kts | 86° |
| 2026-04-21 21:06 | 18.49528 | -65.46500 | 8433 ft | 255 kts | 86° |
| 2026-04-21 21:06 | 18.49614 | -65.44622 | 8057 ft | 248 kts | 86° |
| 2026-04-21 21:07 | 18.49348 | -65.42845 | 7662 ft | 240 kts | 114° |
| 2026-04-21 21:07 | 18.48514 | -65.41347 | 7309 ft | 233 kts | 121° |
| 2026-04-21 21:07 | 18.47682 | -65.39900 | 6943 ft | 226 kts | 119° |
| 2026-04-21 21:07 | 18.46912 | -65.38497 | 6580 ft | 220 kts | 118° |
| 2026-04-21 21:08 | 18.46180 | -65.37106 | 6229 ft | 214 kts | 117° |
| 2026-04-21 21:08 | 18.45481 | -65.35735 | 5888 ft | 211 kts | 117° |
| 2026-04-21 21:08 | 18.44806 | -65.34375 | 5522 ft | 208 kts | 116° |
| 2026-04-21 21:08 | 18.44152 | -65.33026 | 5155 ft | 205 kts | 116° |
| 2026-04-21 21:09 | 18.43511 | -65.31682 | 4817 ft | 201 kts | 116° |
| 2026-04-21 21:09 | 18.42905 | -65.30396 | 4556 ft | 192 kts | 115° |
| 2026-04-21 21:09 | 18.42323 | -65.29150 | 4299 ft | 186 kts | 115° |
| 2026-04-21 21:09 | 18.41756 | -65.27935 | 4059 ft | 185 kts | 115° |
| 2026-04-21 21:10 | 18.41191 | -65.26714 | 3815 ft | 183 kts | 114° |
| 2026-04-21 21:10 | 18.40634 | -65.25504 | 3572 ft | 181 kts | 114° |
| 2026-04-21 21:10 | 18.40073 | -65.24281 | 3324 ft | 179 kts | 114° |
| 2026-04-21 21:10 | 18.39525 | -65.23083 | 3077 ft | 177 kts | 114° |
| 2026-04-21 21:11 | 18.38981 | -65.21892 | 2837 ft | 175 kts | 114° |
| 2026-04-21 21:11 | 18.38458 | -65.20747 | 2616 ft | 173 kts | 114° |
| 2026-04-21 21:11 | 18.37946 | -65.19621 | 2393 ft | 171 kts | 114° |
| 2026-04-21 21:11 | 18.37441 | -65.18507 | 2243 ft | 163 kts | 114° |
| 2026-04-21 21:12 | 18.36964 | -65.17474 | 2154 ft | 148 kts | 114° |
| 2026-04-21 21:12 | 18.36526 | -65.16547 | 2100 ft | 139 kts | 116° |
| 2026-04-21 21:12 | 18.36063 | -65.15578 | 2344 ft | 156 kts | 114° |
| 2026-04-21 21:12 | 18.35566 | -65.14481 | 2216 ft | 173 kts | 114° |
| 2026-04-21 21:13 | 18.35026 | -65.13289 | 2153 ft | 181 kts | 114° |
| 2026-04-21 21:13 | 18.34479 | -65.12072 | 2120 ft | 180 kts | 114° |
| 2026-04-21 21:13 | 18.33961 | -65.10919 | 2093 ft | 165 kts | 114° |
| 2026-04-21 21:13 | 18.33493 | -65.09882 | 2084 ft | 153 kts | 114° |
| 2026-04-21 21:14 | 18.33204 | -65.08845 | 1997 ft | 145 kts | 92° |
| 2026-04-21 21:14 | 18.33261 | -65.07786 | 1807 ft | 145 kts | 85° |
| 2026-04-21 21:14 | 18.33329 | -65.06740 | 1582 ft | 142 kts | 87° |
| 2026-04-21 21:14 | 18.33364 | -65.05711 | 1376 ft | 137 kts | 88° |
| 2026-04-21 21:15 | 18.33402 | -65.04719 | 1202 ft | 135 kts | 88° |
| 2026-04-21 21:15 | 18.33444 | -65.03729 | 1028 ft | 134 kts | 88° |
| 2026-04-21 21:15 | 18.33485 | -65.02746 | 854 ft | 133 kts | 89° |
| 2026-04-21 21:15 | 18.33528 | -65.01784 | 684 ft | 131 kts | 89° |
| 2026-04-21 21:16 | 18.33570 | -65.00830 | 516 ft | 129 kts | 90° |
| 2026-04-21 21:16 | 18.33612 | -64.99889 | 356 ft | 129 kts | 90° |
| 2026-04-21 21:16 | 18.33653 | -64.98921 | 189 ft | 134 kts | 90° |
| 2026-04-21 21:16 | 18.33708 | -64.97929 | 41 ft | 133 kts | 90° |
| 2026-04-21 21:17 | 18.33734 | -64.97109 | 32 ft | 84 kts | 87° |
| 2026-04-21 21:17 | 18.33754 | -64.96646 | 32 ft | 32 kts | 88° |
| 2026-04-21 21:17 | 18.33759 | -64.96442 | 33 ft | 17 kts | 88° |
| 2026-04-21 21:17 | 18.33772 | -64.96362 | 33 ft | 10 kts | 53° |
| 2026-04-21 21:18 | 18.33827 | -64.96340 | 33 ft | 0 kts | 356° |
| 2026-04-21 21:18 | 18.33850 | -64.96362 | 33 ft | 15 kts | 290° |
| 2026-04-21 21:18 | 18.33848 | -64.96515 | 32 ft | 22 kts | 267° |
| 2026-04-21 21:18 | 18.33842 | -64.96632 | 32 ft | 9 kts | 267° |
| 2026-04-21 21:19 | 18.33861 | -64.96691 | 32 ft | 7 kts | 334° |
| 2026-04-21 21:19 | 18.33907 | -64.96677 | 32 ft | 5 kts | 66° |
| 2026-04-21 21:19 | 18.33912 | -64.96630 | 33 ft | 5 kts | 90° |
| 2026-04-21 21:19 | 18.33915 | -64.96590 | 35 ft | 5 kts | 79° |
| 2026-04-21 21:20 | 18.33929 | -64.96576 | 36 ft | 0 kts | 9° |
| 2026-04-21 21:20 | 18.33916 | -64.96578 | 35 ft | 2 kts | 6° |
| 2026-04-21 21:20 | 18.33907 | -64.96578 | 35 ft | 0 kts | 0° |
| 2026-04-21 21:20 | 18.33906 | -64.96578 | 35 ft | 0 kts | 0° |
| 2026-04-21 21:21 | 18.33907 | -64.96578 | 35 ft | 0 kts | 0° |